Time;durP1;ratioP1;P1;durP2;ratioP2;P2;SDS_P1;SDS_P2;PMS_P1;PMS_P2;Temp;Humidity;BMP_temperature;BMP_pressure;BME280_temperature;BME280_humidity;BME280_pressure;Samples;Min_cycle;Max_cycle;Signal;HPM_P1;HPM_P2
2022/07/28 00:00:24;;;;;;;;;;;;;;;;;;5044638;28;19927;-77
2022/07/28 00:03:11;;;;;;;;;;;;;;;;;;5043151;28;19917;-78
2022/07/28 00:05:57;;;;;;;;;;;;;;;;;;5045060;28;20763;-77
2022/07/28 00:08:44;;;;;;;;;;;;;;;;;;5041665;28;20169;-79
2022/07/28 00:11:30;;;;;;;;;;;;;;;;;;5045754;28;20586;-78
2022/07/28 00:14:17;;;;;;;;;;;;;;;;;;5030166;28;19920;-78
2022/07/28 00:17:03;;;;;;;;;;;;;;;;;;5042921;28;19935;-78
2022/07/28 00:19:50;;;;;;;;;;;;;;;;;;5043809;28;19916;-78
2022/07/28 00:22:36;;;;;;;;;;;;;;;;;;5044299;28;20359;-78
2022/07/28 00:25:23;;;;;;;;;;;;;;;;;;5044169;28;19916;-78
2022/07/28 00:28:09;;;;;;;;;;;;;;;;;;5045551;28;19920;-78
2022/07/28 00:30:56;;;;;;;;;;;;;;;;;;5043110;28;19932;-78
2022/07/28 00:33:42;;;;;;;;;;;;;;;;;;5043217;28;19920;-77
2022/07/28 00:36:29;;;;;;;;;;;;;;;;;;5044480;28;19913;-78
2022/07/28 00:39:15;;;;;;;;;;;;;;;;;;5041297;28;19913;-78
2022/07/28 00:42:02;;;;;;;;;;;;;;;;;;5041608;28;19916;-78
2022/07/28 00:44:48;;;;;;;;;;;;;;;;;;5042756;28;19921;-78
2022/07/28 00:47:34;;;;;;;;;;;;;;;;;;5042401;28;19917;-77
2022/07/28 00:50:21;;;;;;;;;;;;;;;;;;5045118;28;19937;-77
2022/07/28 00:53:07;;;;;;;;;;;;;;;;;;5029231;28;20441;-78
2022/07/28 00:55:54;;;;;;;;;;;;;;;;;;5042611;28;19952;-78
2022/07/28 00:58:40;;;;;;;;;;;;;;;;;;5043948;28;20016;-78
2022/07/28 01:01:27;;;;;;;;;;;;;;;;;;5035609;28;19921;-77
2022/07/28 01:04:13;;;;;;;;;;;;;;;;;;5030172;28;19924;-77
2022/07/28 01:07:00;;;;;;;;;;;;;;;;;;5038813;28;19916;-77
2022/07/28 01:09:46;;;;;;;;;;;;;;;;;;5043711;28;20651;-77
2022/07/28 01:12:33;;;;;;;;;;;;;;;;;;5043417;28;19924;-77
2022/07/28 01:15:19;;;;;;;;;;;;;;;;;;5036941;28;20001;-76
2022/07/28 01:18:06;;;;;;;;;;;;;;;;;;5032030;28;19913;-77
2022/07/28 01:20:52;;;;;;;;;;;;;;;;;;5044462;28;20305;-76
2022/07/28 01:23:39;;;;;;;;;;;;;;;;;;5032316;28;19924;-76
2022/07/28 01:26:25;;;;;;;;;;;;;;;;;;5036607;28;19939;-77
2022/07/28 01:29:12;;;;;;;;;;;;;;;;;;5033682;28;19917;-77
2022/07/28 01:31:58;;;;;;;;;;;;;;;;;;5041257;28;19920;-77
2022/07/28 01:34:45;;;;;;;;;;;;;;;;;;5034701;28;19917;-78
2022/07/28 01:37:31;;;;;;;;;;;;;;;;;;5044930;28;19920;-77
2022/07/28 01:40:18;;;;;;;;;;;;;;;;;;5037011;28;19913;-78
2022/07/28 01:43:04;;;;;;;;;;;;;;;;;;5036354;28;19959;-76
2022/07/28 01:45:51;;;;;;;;;;;;;;;;;;5037935;28;19923;-77
2022/07/28 01:48:38;;;;;;;;;;;;;;;;;;5045200;28;20000;-79
2022/07/28 01:51:25;;;;;;;;;;;;;;;;;;5038334;28;19932;-77
2022/07/28 01:54:11;;;;;;;;;;;;;;;;;;5039989;28;19932;-77
2022/07/28 01:56:58;;;;;;;;;;;;;;;;;;5042423;28;19923;-79
2022/07/28 01:59:44;;;;;;;;;;;;;;;;;;5040507;28;19917;-77
2022/07/28 02:02:31;;;;;;;;;;;;;;;;;;5042604;28;19941;-77
2022/07/28 02:05:17;;;;;;;;;;;;;;;;;;5041455;28;19931;-78
2022/07/28 02:08:04;;;;;;;;;;;;;;;;;;5039868;28;20733;-78
2022/07/28 02:13:55;;;;;;;;;;;;;;;;;;5035503;28;20435;-79
2022/07/28 02:16:42;;;;;;;;;;;;;;;;;;5019361;28;19921;-78
2022/07/28 02:19:28;;;;;;;;;;;;;;;;;;5026153;28;20381;-78
2022/07/28 02:22:15;;;;;;;;;;;;;;;;;;5018470;28;19921;-78
2022/07/28 02:25:01;;;;;;;;;;;;;;;;;;5019131;28;20368;-78
2022/07/28 02:27:48;;;;;;;;;;;;;;;;;;5021097;28;19912;-78
2022/07/28 02:30:34;;;;;;;;;;;;;;;;;;5022002;28;20401;-77
2022/07/28 02:33:21;;;;;;;;;;;;;;;;;;5024691;28;19917;-78
2022/07/28 02:36:07;;;;;;;;;;;;;;;;;;5021109;28;20317;-78
2022/07/28 02:38:54;;;;;;;;;;;;;;;;;;5024778;28;19924;-77
2022/07/28 02:41:40;;;;;;;;;;;;;;;;;;5014673;28;19932;-77
2022/07/28 02:44:27;;;;;;;;;;;;;;;;;;5026580;28;19920;-77
2022/07/28 02:47:13;;;;;;;;;;;;;;;;;;5025112;28;19913;-77
2022/07/28 02:50:00;;;;;;;;;;;;;;;;;;5022722;28;20702;-77
2022/07/28 02:52:46;;;;;;;;;;;;;;;;;;5018220;28;19917;-77
2022/07/28 02:55:33;;;;;;;;;;;;;;;;;;5012115;28;19924;-77
2022/07/28 02:58:19;;;;;;;;;;;;;;;;;;5044154;28;19913;-76
2022/07/28 03:01:06;;;;;;;;;;;;;;;;;;5042425;28;19927;-77
2022/07/28 03:03:52;;;;;;;;;;;;;;;;;;5037999;28;20498;-77
2022/07/28 03:06:39;;;;;;;;;;;;;;;;;;5034062;28;20455;-77
2022/07/28 03:09:25;;;;;;;;;;;;;;;;;;5040886;28;19920;-77
2022/07/28 03:12:14;;;;;;;;;;;;;;;;;;5043639;28;19919;-77
2022/07/28 03:15:00;;;;;;;;;;;;;;;;;;5041685;28;19925;-77
2022/07/28 03:17:50;;;;;;;;;;;;;;;;;;5036758;28;19920;-77
2022/07/28 03:20:54;;;;;;;;;;;;;;;;;;5021874;28;19912;-78
2022/07/28 03:23:40;;;;;;;;;;;;;;;;;;5026991;28;19925;-78
2022/07/28 03:26:27;;;;;;;;;;;;;;;;;;5047186;28;20387;-77
2022/07/28 03:29:13;;;;;;;;;;;;;;;;;;5027767;28;19919;-77
2022/07/28 03:31:59;;;;;;;;;;;;;;;;;;5046364;28;19920;-77
2022/07/28 03:34:46;;;;;;;;;;;;;;;;;;5041026;28;19920;-77
2022/07/28 03:37:33;;;;;;;;;;;;;;;;;;5028485;28;19912;-78
2022/07/28 03:40:19;;;;;;;;;;;;;;;;;;5037901;28;19913;-77
2022/07/28 03:43:06;;;;;;;;;;;;;;;;;;5050734;28;19928;-77
2022/07/28 03:45:53;;;;;;;;;;;;;;;;;;5039702;28;20360;-78
2022/07/28 03:48:39;;;;;;;;;;;;;;;;;;5047621;28;19913;-77
2022/07/28 03:51:28;;;;;;;;;;;;;;;;;;5043045;28;20043;-77
2022/07/28 03:54:14;;;;;;;;;;;;;;;;;;5033333;28;19913;-78
2022/07/28 03:57:01;;;;;;;;;;;;;;;;;;5040365;28;19916;-77
2022/07/28 03:59:47;;;;;;;;;;;;;;;;;;5026120;28;20408;-77
2022/07/28 04:02:34;;;;;;;;;;;;;;;;;;5043610;28;19917;-77
2022/07/28 04:05:20;;;;;;;;;;;;;;;;;;5048342;28;19928;-77
2022/07/28 04:08:07;;;;;;;;;;;;;;;;;;5039979;28;19924;-77
2022/07/28 04:10:53;;;;;;;;;;;;;;;;;;5037421;28;20537;-77
2022/07/28 04:13:40;;;;;;;;;;;;;;;;;;5042479;28;20628;-77
2022/07/28 04:16:26;;;;;;;;;;;;;;;;;;5038523;28;19921;-77
2022/07/28 04:19:13;;;;;;;;;;;;;;;;;;5040114;28;19939;-77
2022/07/28 04:21:59;;;;;;;;;;;;;;;;;;5044512;28;19920;-77
2022/07/28 04:24:46;;;;;;;;;;;;;;;;;;5040855;28;20387;-78
2022/07/28 04:27:32;;;;;;;;;;;;;;;;;;5041372;28;19913;-78
2022/07/28 04:30:20;;;;;;;;;;;;;;;;;;5026438;28;19963;-76
2022/07/28 04:33:06;;;;;;;;;;;;;;;;;;5046256;28;19917;-77
2022/07/28 04:35:53;;;;;;;;;;;;;;;;;;5041964;28;19920;-77
2022/07/28 04:38:39;;;;;;;;;;;;;;;;;;5030545;28;19931;-77
2022/07/28 04:41:26;;;;;;;;;;;;;;;;;;5032241;28;19931;-77
2022/07/28 04:44:12;;;;;;;;;;;;;;;;;;5044787;28;19932;-77
2022/07/28 04:46:59;;;;;;;;;;;;;;;;;;5044872;28;19912;-77
2022/07/28 04:49:45;;;;;;;;;;;;;;;;;;5045230;28;19924;-76
2022/07/28 04:52:32;;;;;;;;;;;;;;;;;;5039037;28;20684;-77
2022/07/28 04:55:19;;;;;;;;;;;;;;;;;;5034269;28;19924;-77
2022/07/28 04:58:05;;;;;;;;;;;;;;;;;;5040486;28;20395;-77
2022/07/28 05:00:52;;;;;;;;;;;;;;;;;;5036605;28;19917;-77
2022/07/28 05:03:38;;;;;;;;;;;;;;;;;;5041892;28;19923;-77
2022/07/28 05:06:25;;;;;;;;;;;;;;;;;;5042890;28;20690;-78
2022/07/28 05:09:11;;;;;;;;;;;;;;;;;;5040237;28;19928;-78
2022/07/28 05:11:58;;;;;;;;;;;;;;;;;;5037297;28;20320;-78
2022/07/28 05:14:44;;;;;;;;;;;;;;;;;;5039078;28;20310;-78
2022/07/28 05:17:31;;;;;;;;;;;;;;;;;;5029140;28;19917;-78
2022/07/28 05:20:17;;;;;;;;;;;;;;;;;;5018980;28;19955;-78
2022/07/28 05:23:04;;;;;;;;;;;;;;;;;;5027852;28;19913;-78
2022/07/28 05:25:50;;;;;;;;;;;;;;;;;;5034527;28;20395;-77
2022/07/28 05:28:37;;;;;;;;;;;;;;;;;;5034382;28;20657;-78
2022/07/28 05:31:23;;;;;;;;;;;;;;;;;;5021512;28;19912;-77
2022/07/28 05:34:10;;;;;;;;;;;;;;;;;;5040430;28;20349;-76
2022/07/28 05:36:56;;;;;;;;;;;;;;;;;;5045423;28;20403;-77
2022/07/28 05:39:43;;;;;;;;;;;;;;;;;;5043251;28;19913;-77
2022/07/28 05:42:34;;;;;;;;;;;;;;;;;;5038045;28;19936;-77
2022/07/28 05:45:21;;;;;;;;;;;;;;;;;;5040520;28;19917;-77
2022/07/28 05:48:07;;;;;;;;;;;;;;;;;;5033851;28;19913;-78
2022/07/28 05:50:54;;;;;;;;;;;;;;;;;;5039082;28;19919;-77
2022/07/28 05:53:40;;;;;;;;;;;;;;;;;;5044029;28;20463;-77
2022/07/28 05:56:27;;;;;;;;;;;;;;;;;;5035046;28;19917;-77
2022/07/28 05:59:13;;;;;;;;;;;;;;;;;;5032152;28;20424;-77
2022/07/28 06:02:00;;;;;;;;;;;;;;;;;;5040208;28;19924;-77
2022/07/28 06:04:46;;;;;;;;;;;;;;;;;;5023430;28;20289;-78
2022/07/28 06:07:33;;;;;;;;;;;;;;;;;;5040752;28;19919;-78
2022/07/28 06:13:34;;;;;;;;;;;;;;;;;;5087648;28;20303;-78
2022/07/28 06:16:21;;;;;;;;;;;;;;;;;;5088934;28;19912;-79
2022/07/28 06:19:07;;;;;;;;;;;;;;;;;;5079842;28;20280;-79
2022/07/28 06:21:54;;;;;;;;;;;;;;;;;;5078723;28;19961;-78
2022/07/28 06:24:40;;;;;;;;;;;;;;;;;;5080951;28;19931;-77
2022/07/28 06:27:27;;;;;;;;;;;;;;;;;;5102730;28;19912;-78
2022/07/28 06:30:13;;;;;;;;;;;;;;;;;;5072392;28;20077;-78
2022/07/28 06:33:00;;;;;;;;;;;;;;;;;;5106670;27;19917;-78
2022/07/28 06:35:46;;;;;;;;;;;;;;;;;;5066947;28;19921;-78
2022/07/28 06:38:33;;;;;;;;;;;;;;;;;;5073955;28;19927;-78
2022/07/28 06:41:19;;;;;;;;;;;;;;;;;;5074247;28;19912;-78
2022/07/28 06:44:06;;;;;;;;;;;;;;;;;;5069808;28;19917;-78
2022/07/28 06:46:53;;;;;;;;;;;;;;;;;;5078346;28;20380;-78
2022/07/28 06:49:39;;;;;;;;;;;;;;;;;;5074123;28;19928;-78
2022/07/28 06:52:26;;;;;;;;;;;;;;;;;;5066151;28;19923;-78
2022/07/28 06:55:14;;;;;;;;;;;;;;;;;;5080541;28;19916;-76
2022/07/28 06:58:01;;;;;;;;;;;;;;;;;;5085905;28;19923;-76
2022/07/28 07:00:47;;;;;;;;;;;;;;;;;;5075960;28;19917;-76
2022/07/28 07:03:34;;;;;;;;;;;;;;;;;;5082619;28;20616;-76
2022/07/28 07:06:20;;;;;;;;;;;;;;;;;;5096686;28;19912;-77
2022/07/28 07:09:07;;;;;;;;;;;;;;;;;;5095716;28;19931;-77
2022/07/28 07:11:53;;;;;;;;;;;;;;;;;;5098030;28;19916;-78
2022/07/28 07:14:40;;;;;;;;;;;;;;;;;;5091172;28;19916;-77
2022/07/28 07:17:26;;;;;;;;;;;;;;;;;;5088205;28;19917;-78
2022/07/28 07:20:13;;;;;;;;;;;;;;;;;;5086035;28;19923;-77
2022/07/28 07:22:59;;;;;;;;;;;;;;;;;;5075375;28;20364;-77
2022/07/28 07:25:46;;;;;;;;;;;;;;;;;;5073422;28;19913;-77
2022/07/28 07:28:33;;;;;;;;;;;;;;;;;;5075360;28;19927;-77
2022/07/28 07:31:20;;;;;;;;;;;;;;;;;;5079082;28;19916;-77
2022/07/28 07:34:06;;;;;;;;;;;;;;;;;;5080117;28;20398;-78
2022/07/28 07:36:53;;;;;;;;;;;;;;;;;;5079277;28;21013;-79
2022/07/28 07:39:39;;;;;;;;;;;;;;;;;;5072480;28;21259;-79
2022/07/28 07:42:26;;;;;;;;;;;;;;;;;;5079808;28;19918;-77
2022/07/28 07:45:13;;;;;;;;;;;;;;;;;;5078330;28;20029;-78
2022/07/28 07:48:00;;;;;;;;;;;;;;;;;;5073820;28;19946;-77
2022/07/28 07:50:46;;;;;;;;;;;;;;;;;;5077542;28;19932;-78
2022/07/28 07:53:32;;;;;;;;;;;;;;;;;;5083706;28;19915;-79
2022/07/28 07:56:19;;;;;;;;;;;;;;;;;;5089775;28;19953;-79
2022/07/28 07:59:05;;;;;;;;;;;;;;;;;;5071287;28;19917;-80
2022/07/28 08:01:55;;;;;;;;;;;;;;;;;;5076106;28;20279;-78
2022/07/28 08:04:41;;;;;;;;;;;;;;;;;;5076495;28;19943;-81
2022/07/28 08:07:28;;;;;;;;;;;;;;;;;;5079772;28;19916;-79
2022/07/28 08:10:14;;;;;;;;;;;;;;;;;;5071762;28;19931;-79
2022/07/28 08:13:02;;;;;;;;;;;;;;;;;;5074919;28;19923;-81
2022/07/28 08:15:48;;;;;;;;;;;;;;;;;;5059368;28;19927;-80
2022/07/28 08:18:35;;;;;;;;;;;;;;;;;;5071448;28;19916;-80
2022/07/28 08:21:21;;;;;;;;;;;;;;;;;;5081246;28;19916;-80
2022/07/28 08:24:08;;;;;;;;;;;;;;;;;;5079574;28;19955;-79
2022/07/28 08:26:55;;;;;;;;;;;;;;;;;;5080045;28;19934;-80
2022/07/28 08:29:41;;;;;;;;;;;;;;;;;;5086568;28;19928;-81
2022/07/28 08:32:28;;;;;;;;;;;;;;;;;;5085598;28;19916;-81
2022/07/28 08:35:14;;;;;;;;;;;;;;;;;;5079767;28;19916;-80
2022/07/28 08:38:01;;;;;;;;;;;;;;;;;;5078652;28;19922;-82
2022/07/28 08:40:47;;;;;;;;;;;;;;;;;;5079494;28;19916;-81
2022/07/28 08:43:34;;;;;;;;;;;;;;;;;;5064023;28;19916;-81
2022/07/28 08:46:20;;;;;;;;;;;;;;;;;;5078033;28;19917;-84
2022/07/28 08:49:07;;;;;;;;;;;;;;;;;;5079998;28;19919;-81
2022/07/28 08:51:53;;;;;;;;;;;;;;;;;;5085574;28;20207;-83
2022/07/28 08:54:40;;;;;;;;;;;;;;;;;;5069780;28;20359;-83
2022/07/28 08:57:27;;;;;;;;;;;;;;;;;;5072958;28;20390;-83
2022/07/28 09:00:13;;;;;;;;;;;;;;;;;;5080823;28;19911;-81
2022/07/28 09:03:01;;;;;;;;;;;;;;;;;;5074996;28;19916;-80
2022/07/28 09:05:49;;;;;;;;;;;;;;;;;;5080250;28;19916;-81
2022/07/28 09:08:35;;;;;;;;;;;;;;;;;;5070272;28;19923;-80
2022/07/28 09:11:22;;;;;;;;;;;;;;;;;;5083435;28;20287;-79
2022/07/28 09:14:08;;;;;;;;;;;;;;;;;;5079408;28;19916;-79
2022/07/28 09:16:54;;;;;;;;;;;;;;;;;;5074382;28;19918;-79
2022/07/28 09:19:41;;;;;;;;;;;;;;;;;;5098214;28;19912;-79
2022/07/28 09:22:27;;;;;;;;;;;;;;;;;;5085512;28;20752;-84
2022/07/28 09:25:14;;;;;;;;;;;;;;;;;;5070121;28;19912;-80
2022/07/28 09:28:00;;;;;;;;;;;;;;;;;;5083574;28;19917;-79
2022/07/28 09:30:48;;;;;;;;;;;;;;;;;;5076176;28;19926;-79
2022/07/28 09:33:35;;;;;;;;;;;;;;;;;;5070738;28;19917;-81
2022/07/28 09:36:22;;;;;;;;;;;;;;;;;;5082703;28;20447;-79
2022/07/28 09:39:08;;;;;;;;;;;;;;;;;;5076888;28;19912;-78
2022/07/28 09:41:55;;;;;;;;;;;;;;;;;;5078546;28;19920;-80
2022/07/28 09:44:41;;;;;;;;;;;;;;;;;;5072421;28;19912;-78
2022/07/28 09:47:32;;;;;;;;;;;;;;;;;;5072387;28;20287;-81
2022/07/28 09:50:19;;;;;;;;;;;;;;;;;;5078917;28;20282;-80
2022/07/28 09:53:06;;;;;;;;;;;;;;;;;;5081806;28;20624;-82
2022/07/28 09:55:52;;;;;;;;;;;;;;;;;;5077918;28;19919;-81
2022/07/28 09:58:39;;;;;;;;;;;;;;;;;;5089910;28;19923;-81
2022/07/28 10:01:25;;;;;;;;;;;;;;;;;;5079654;28;19912;-81
2022/07/28 10:04:12;;;;;;;;;;;;;;;;;;5088217;28;19912;-80
2022/07/28 10:06:59;;;;;;;;;;;;;;;;;;5093292;28;19916;-80
2022/07/28 10:09:45;;;;;;;;;;;;;;;;;;5081649;28;19924;-83
2022/07/28 10:12:32;;;;;;;;;;;;;;;;;;5083797;28;19918;-83
2022/07/28 10:18:23;;;;;;;;;;;;;;;;;;5100426;28;19916;-79
2022/07/28 10:21:10;;;;;;;;;;;;;;;;;;5087998;28;20387;-81
2022/07/28 10:23:57;;;;;;;;;;;;;;;;;;5087020;28;19928;-80
2022/07/28 10:26:43;;;;;;;;;;;;;;;;;;5086067;28;19913;-81
2022/07/28 10:29:30;;;;;;;;;;;;;;;;;;5093142;28;19947;-81
2022/07/28 10:32:17;;;;;;;;;;;;;;;;;;5092832;28;19942;-81
2022/07/28 10:35:03;;;;;;;;;;;;;;;;;;5094336;28;19911;-81
2022/07/28 10:37:49;;;;;;;;;;;;;;;;;;5082225;28;19926;-81
2022/07/28 10:40:36;;;;;;;;;;;;;;;;;;5090478;28;19916;-80
2022/07/28 10:43:22;;;;;;;;;;;;;;;;;;5092247;28;19912;-81
2022/07/28 10:46:09;;;;;;;;;;;;;;;;;;5086876;28;19920;-78
2022/07/28 10:48:55;;;;;;;;;;;;;;;;;;5081995;28;20291;-80
2022/07/28 10:51:42;;;;;;;;;;;;;;;;;;5091905;28;19963;-80
2022/07/28 10:54:28;;;;;;;;;;;;;;;;;;5084932;28;20677;-81
2022/07/28 10:57:15;;;;;;;;;;;;;;;;;;5089127;28;19926;-81
2022/07/28 11:00:01;;;;;;;;;;;;;;;;;;5093402;28;19921;-79
2022/07/28 11:02:49;;;;;;;;;;;;;;;;;;5090835;28;19916;-79
2022/07/28 11:05:35;;;;;;;;;;;;;;;;;;5070111;28;19926;-79
2022/07/28 11:08:22;;;;;;;;;;;;;;;;;;5092393;28;19920;-80
2022/07/28 11:11:08;;;;;;;;;;;;;;;;;;5089843;28;19930;-79
2022/07/28 11:13:55;;;;;;;;;;;;;;;;;;5072744;28;19975;-79
2022/07/28 11:16:42;;;;;;;;;;;;;;;;;;5074803;28;19912;-79
2022/07/28 11:19:28;;;;;;;;;;;;;;;;;;5099770;28;19916;-83
2022/07/28 11:22:18;;;;;;;;;;;;;;;;;;5094269;28;19912;-81
2022/07/28 11:25:04;;;;;;;;;;;;;;;;;;5084148;28;19919;-82
2022/07/28 11:27:53;;;;;;;;;;;;;;;;;;5087918;28;19912;-81
2022/07/28 11:30:39;;;;;;;;;;;;;;;;;;5093015;28;19962;-78
2022/07/28 11:33:28;;;;;;;;;;;;;;;;;;5080753;28;19916;-80
2022/07/28 11:36:14;;;;;;;;;;;;;;;;;;5092205;28;19923;-78
2022/07/28 11:39:00;;;;;;;;;;;;;;;;;;5067647;28;20101;-79
2022/07/28 11:41:47;;;;;;;;;;;;;;;;;;5077603;28;19913;-79
2022/07/28 11:44:33;;;;;;;;;;;;;;;;;;5093746;28;19912;-80
2022/07/28 11:47:20;;;;;;;;;;;;;;;;;;5090037;28;20395;-80
2022/07/28 11:50:06;;;;;;;;;;;;;;;;;;5088203;28;19927;-80
2022/07/28 11:52:53;;;;;;;;;;;;;;;;;;5083101;28;20336;-79
2022/07/28 11:55:39;;;;;;;;;;;;;;;;;;5084647;28;19919;-80
2022/07/28 11:58:26;;;;;;;;;;;;;;;;;;5092289;28;21029;-80
2022/07/28 12:01:15;;;;;;;;;;;;;;;;;;5086618;28;19931;-80
2022/07/28 12:04:01;;;;;;;;;;;;;;;;;;5086824;28;19912;-80
2022/07/28 12:06:48;;;;;;;;;;;;;;;;;;5081592;28;19912;-79
2022/07/28 12:09:36;;;;;;;;;;;;;;;;;;5080714;28;19970;-79
2022/07/28 12:12:23;;;;;;;;;;;;;;;;;;5072541;28;19913;-80
2022/07/28 12:15:09;;;;;;;;;;;;;;;;;;5075661;28;19925;-79
2022/07/28 12:17:55;;;;;;;;;;;;;;;;;;5076263;28;19935;-83
2022/07/28 12:20:42;;;;;;;;;;;;;;;;;;5070954;28;20384;-80
2022/07/28 12:23:28;;;;;;;;;;;;;;;;;;5079728;28;19916;-80
2022/07/28 12:26:15;;;;;;;;;;;;;;;;;;5069301;28;20407;-80
2022/07/28 12:29:01;;;;;;;;;;;;;;;;;;5079427;28;19927;-79
2022/07/28 12:31:48;;;;;;;;;;;;;;;;;;5084775;28;19916;-78
2022/07/28 12:34:34;;;;;;;;;;;;;;;;;;5086692;28;19919;-80
2022/07/28 12:37:22;;;;;;;;;;;;;;;;;;5081430;28;19912;-79
2022/07/28 12:40:09;;;;;;;;;;;;;;;;;;5084692;28;19920;-81
2022/07/28 12:42:56;;;;;;;;;;;;;;;;;;5077591;28;19936;-78
2022/07/28 12:45:42;;;;;;;;;;;;;;;;;;5074279;28;19935;-80
2022/07/28 12:48:28;;;;;;;;;;;;;;;;;;5079375;28;19923;-80
2022/07/28 12:51:15;;;;;;;;;;;;;;;;;;5086865;28;20256;-87
2022/07/28 12:54:02;;;;;;;;;;;;;;;;;;5099078;28;19912;-84
2022/07/28 12:56:48;;;;;;;;;;;;;;;;;;5085395;28;19919;-82
2022/07/28 12:59:35;;;;;;;;;;;;;;;;;;5065699;28;19912;-84
2022/07/28 13:02:21;;;;;;;;;;;;;;;;;;5092313;28;19947;-83
2022/07/28 13:05:09;;;;;;;;;;;;;;;;;;5073509;28;19923;-83
2022/07/28 13:07:56;;;;;;;;;;;;;;;;;;5078054;28;19912;-83
2022/07/28 13:10:42;;;;;;;;;;;;;;;;;;5076819;28;19939;-82
2022/07/28 13:13:29;;;;;;;;;;;;;;;;;;5068785;28;19964;-81
2022/07/28 13:16:15;;;;;;;;;;;;;;;;;;5090282;28;19919;-82
2022/07/28 13:19:04;;;;;;;;;;;;;;;;;;5093267;28;20291;-83
2022/07/28 13:21:56;;;;;;;;;;;;;;;;;;5091969;28;20311;-82
2022/07/28 13:24:42;;;;;;;;;;;;;;;;;;5075139;28;19912;-82
2022/07/28 13:27:29;;;;;;;;;;;;;;;;;;5082922;28;19920;-82
2022/07/28 13:30:15;;;;;;;;;;;;;;;;;;5078565;28;19919;-83
2022/07/28 13:33:02;;;;;;;;;;;;;;;;;;5066321;28;19912;-84
2022/07/28 13:35:49;;;;;;;;;;;;;;;;;;5086440;28;19912;-83
2022/07/28 13:38:35;;;;;;;;;;;;;;;;;;5071696;28;19918;-82
2022/07/28 13:41:22;;;;;;;;;;;;;;;;;;5063384;28;19912;-80
2022/07/28 13:44:08;;;;;;;;;;;;;;;;;;5085230;28;19915;-82
2022/07/28 13:46:55;;;;;;;;;;;;;;;;;;5083258;28;19912;-80
2022/07/28 13:49:41;;;;;;;;;;;;;;;;;;5077794;28;19944;-79
2022/07/28 13:52:27;;;;;;;;;;;;;;;;;;5084519;28;20365;-81
2022/07/28 13:55:14;;;;;;;;;;;;;;;;;;5068167;28;19942;-81
2022/07/28 13:58:00;;;;;;;;;;;;;;;;;;5075832;28;19920;-81
2022/07/28 14:00:47;;;;;;;;;;;;;;;;;;5090286;28;19912;-81
2022/07/28 14:03:33;;;;;;;;;;;;;;;;;;5076495;28;19927;-80
2022/07/28 14:06:20;;;;;;;;;;;;;;;;;;5065248;28;19919;-79
2022/07/28 14:09:07;;;;;;;;;;;;;;;;;;5077278;28;20423;-82
2022/07/28 14:11:53;;;;;;;;;;;;;;;;;;5092188;28;19916;-81
2022/07/28 14:14:39;;;;;;;;;;;;;;;;;;5091383;28;19916;-83
2022/07/28 14:17:26;;;;;;;;;;;;;;;;;;5084820;28;19923;-83
2022/07/28 14:20:12;;;;;;;;;;;;;;;;;;5085482;28;20389;-82
2022/07/28 14:22:59;;;;;;;;;;;;;;;;;;5083213;28;19923;-82
2022/07/28 14:25:45;;;;;;;;;;;;;;;;;;5091850;28;20240;-82
2022/07/28 14:28:32;;;;;;;;;;;;;;;;;;5086711;28;19912;-82
2022/07/28 14:31:18;;;;;;;;;;;;;;;;;;5097929;28;19944;-83
2022/07/28 14:34:06;;;;;;;;;;;;;;;;;;5075057;28;19930;-82
2022/07/28 14:36:55;;;;;;;;;;;;;;;;;;5101937;28;20578;-81
2022/07/28 14:39:41;;;;;;;;;;;;;;;;;;5090017;28;20291;-81
2022/07/28 14:42:28;;;;;;;;;;;;;;;;;;5098909;28;19912;-82
2022/07/28 14:45:14;;;;;;;;;;;;;;;;;;5086236;28;19912;-82
2022/07/28 14:48:01;;;;;;;;;;;;;;;;;;5087438;28;19917;-83
2022/07/28 14:50:47;;;;;;;;;;;;;;;;;;5095600;28;19922;-81
2022/07/28 14:53:34;;;;;;;;;;;;;;;;;;5087293;28;19908;-81
2022/07/28 14:56:20;;;;;;;;;;;;;;;;;;5101407;28;19916;-81
2022/07/28 14:59:07;;;;;;;;;;;;;;;;;;5082625;28;20328;-82
2022/07/28 15:01:53;;;;;;;;;;;;;;;;;;5078293;28;19912;-82
2022/07/28 15:04:40;;;;;;;;;;;;;;;;;;5089654;28;19912;-83
2022/07/28 15:07:26;;;;;;;;;;;;;;;;;;5097459;28;19922;-82
2022/07/28 15:10:13;;;;;;;;;;;;;;;;;;5097408;28;19924;-82
2022/07/28 15:12:59;;;;;;;;;;;;;;;;;;5085413;28;20261;-82
2022/07/28 15:15:46;;;;;;;;;;;;;;;;;;5083861;28;19909;-82
2022/07/28 15:18:32;;;;;;;;;;;;;;;;;;5098733;28;19915;-83
2022/07/28 15:21:19;;;;;;;;;;;;;;;;;;5100858;28;19913;-83
2022/07/28 15:24:05;;;;;;;;;;;;;;;;;;5077661;28;19909;-81
2022/07/28 15:26:52;;;;;;;;;;;;;;;;;;5089199;28;19912;-82
2022/07/28 15:29:38;;;;;;;;;;;;;;;;;;5091920;28;19920;-82
2022/07/28 15:32:25;;;;;;;;;;;;;;;;;;5078724;28;19941;-82
2022/07/28 15:35:11;;;;;;;;;;;;;;;;;;5085078;28;19916;-81
2022/07/28 15:37:58;;;;;;;;;;;;;;;;;;5098025;28;20628;-84
2022/07/28 15:40:44;;;;;;;;;;;;;;;;;;5096898;28;19908;-83
2022/07/28 15:43:35;;;;;;;;;;;;;;;;;;5088424;28;19955;-83
2022/07/28 15:46:21;;;;;;;;;;;;;;;;;;5095087;28;19923;-83
2022/07/28 15:49:08;;;;;;;;;;;;;;;;;;5085394;28;19920;-82
2022/07/28 15:51:54;;;;;;;;;;;;;;;;;;5094874;28;20439;-82
2022/07/28 15:54:41;;;;;;;;;;;;;;;;;;5069410;28;19923;-83
2022/07/28 15:57:28;;;;;;;;;;;;;;;;;;5077761;28;19912;-82
2022/07/28 16:00:14;;;;;;;;;;;;;;;;;;5089390;28;19908;-82
2022/07/28 16:03:01;;;;;;;;;;;;;;;;;;5060932;28;19912;-82
2022/07/28 16:05:48;;;;;;;;;;;;;;;;;;5093421;28;20249;-82
2022/07/28 16:08:34;;;;;;;;;;;;;;;;;;5094994;28;19994;-81
2022/07/28 16:11:21;;;;;;;;;;;;;;;;;;5082066;28;19924;-81
2022/07/28 16:14:07;;;;;;;;;;;;;;;;;;5097319;28;20033;-81
2022/07/28 16:16:54;;;;;;;;;;;;;;;;;;5097318;28;19912;-82
2022/07/28 16:19:40;;;;;;;;;;;;;;;;;;5077906;28;20386;-83
2022/07/28 16:22:27;;;;;;;;;;;;;;;;;;5088310;28;20386;-82
2022/07/28 16:25:18;;;;;;;;;;;;;;;;;;5086309;28;19912;-82
2022/07/28 16:28:05;;;;;;;;;;;;;;;;;;5088950;28;19926;-82
2022/07/28 16:30:52;;;;;;;;;;;;;;;;;;5094840;28;19924;-83
2022/07/28 16:33:38;;;;;;;;;;;;;;;;;;5092618;28;19912;-82
2022/07/28 16:36:24;;;;;;;;;;;;;;;;;;5088575;28;19934;-81
2022/07/28 16:39:11;;;;;;;;;;;;;;;;;;5095376;28;19928;-83
2022/07/28 16:41:57;;;;;;;;;;;;;;;;;;5085255;28;19923;-83
2022/07/28 16:44:44;;;;;;;;;;;;;;;;;;5062914;28;19974;-85
2022/07/28 16:47:30;;;;;;;;;;;;;;;;;;5085502;28;20366;-84
2022/07/28 16:50:17;;;;;;;;;;;;;;;;;;5084697;28;19924;-85
2022/07/28 16:53:07;;;;;;;;;;;;;;;;;;5079060;28;19938;-85
2022/07/28 16:55:54;;;;;;;;;;;;;;;;;;5087920;28;20383;-84
2022/07/28 16:58:40;;;;;;;;;;;;;;;;;;5085937;28;20354;-84
2022/07/28 17:01:27;;;;;;;;;;;;;;;;;;5081787;28;19916;-83
2022/07/28 17:04:13;;;;;;;;;;;;;;;;;;5083304;28;20320;-83
2022/07/28 17:07:00;;;;;;;;;;;;;;;;;;5082850;28;19913;-83
2022/07/28 17:09:46;;;;;;;;;;;;;;;;;;5084982;28;19924;-83
2022/07/28 17:12:33;;;;;;;;;;;;;;;;;;5089271;28;19912;-83
2022/07/28 17:15:19;;;;;;;;;;;;;;;;;;5069870;28;19913;-84
2022/07/28 17:18:05;;;;;;;;;;;;;;;;;;5079716;28;19912;-83
2022/07/28 17:20:52;;;;;;;;;;;;;;;;;;5078679;28;19922;-83
2022/07/28 17:23:38;;;;;;;;;;;;;;;;;;5070272;28;20288;-82
2022/07/28 17:26:25;;;;;;;;;;;;;;;;;;5072226;28;19912;-83
2022/07/28 17:29:11;;;;;;;;;;;;;;;;;;5061773;28;20395;-83
2022/07/28 17:31:58;;;;;;;;;;;;;;;;;;5074323;28;19984;-83
2022/07/28 17:34:44;;;;;;;;;;;;;;;;;;5065604;28;20367;-83
2022/07/28 17:37:31;;;;;;;;;;;;;;;;;;5081464;28;19916;-83
2022/07/28 17:40:19;;;;;;;;;;;;;;;;;;5073955;28;19916;-83
2022/07/28 17:43:05;;;;;;;;;;;;;;;;;;5073923;28;19935;-82
2022/07/28 17:45:53;;;;;;;;;;;;;;;;;;5075880;28;19923;-82
2022/07/28 17:48:40;;;;;;;;;;;;;;;;;;5075714;28;20295;-82
2022/07/28 17:51:27;;;;;;;;;;;;;;;;;;5085318;28;19924;-83
2022/07/28 17:54:14;;;;;;;;;;;;;;;;;;5079932;28;19923;-83
2022/07/28 17:57:01;;;;;;;;;;;;;;;;;;5089215;28;19919;-82
2022/07/28 17:59:48;;;;;;;;;;;;;;;;;;5085392;28;19947;-82
2022/07/28 18:02:36;;;;;;;;;;;;;;;;;;5080208;28;19913;-82
2022/07/28 18:05:22;;;;;;;;;;;;;;;;;;5084517;28;20295;-82
2022/07/28 18:08:09;;;;;;;;;;;;;;;;;;5066664;28;19912;-82
2022/07/28 18:10:56;;;;;;;;;;;;;;;;;;5077738;28;19928;-81
2022/07/28 18:13:44;;;;;;;;;;;;;;;;;;5086270;28;20691;-83
2022/07/28 18:16:31;;;;;;;;;;;;;;;;;;5075718;28;19931;-83
2022/07/28 18:19:18;;;;;;;;;;;;;;;;;;5095863;28;19923;-83
2022/07/28 18:22:04;;;;;;;;;;;;;;;;;;5075484;28;20434;-83
2022/07/28 18:24:51;;;;;;;;;;;;;;;;;;5071268;28;19922;-83
2022/07/28 18:27:37;;;;;;;;;;;;;;;;;;5075833;28;20545;-82
2022/07/28 18:30:24;;;;;;;;;;;;;;;;;;5075107;28;19924;-82
2022/07/28 18:33:10;;;;;;;;;;;;;;;;;;5072792;28;20019;-81
2022/07/28 18:35:57;;;;;;;;;;;;;;;;;;5076123;28;19908;-83
2022/07/28 18:38:44;;;;;;;;;;;;;;;;;;5073483;28;19934;-80
2022/07/28 18:41:30;;;;;;;;;;;;;;;;;;5076018;28;19911;-80
2022/07/28 18:44:17;;;;;;;;;;;;;;;;;;5073748;28;19917;-81
2022/07/28 18:47:03;;;;;;;;;;;;;;;;;;5077971;28;19912;-81
2022/07/28 18:49:50;;;;;;;;;;;;;;;;;;5080644;28;19928;-82
2022/07/28 18:52:36;;;;;;;;;;;;;;;;;;5076876;28;19912;-80
2022/07/28 18:55:23;;;;;;;;;;;;;;;;;;5073740;28;20378;-80
2022/07/28 18:58:09;;;;;;;;;;;;;;;;;;5079312;28;19919;-81
2022/07/28 19:00:56;;;;;;;;;;;;;;;;;;5074752;28;19919;-82
2022/07/28 19:03:42;;;;;;;;;;;;;;;;;;5070464;28;20591;-82
2022/07/28 19:06:29;;;;;;;;;;;;;;;;;;5054902;28;19923;-81